sensor_id;sensor_type;location;lat;lon;timestamp;temperature;humidity
78793;SHT31;68134;51.984;5.652;2024-02-23T00:02:25;6.0;78.6
78793;SHT31;68134;51.984;5.652;2024-02-23T00:04:54;6.0;77.7
78793;SHT31;68134;51.984;5.652;2024-02-23T00:07:23;6.0;78.9
78793;SHT31;68134;51.984;5.652;2024-02-23T00:09:52;6.0;79.8
78793;SHT31;68134;51.984;5.652;2024-02-23T00:12:21;6.0;80.1
78793;SHT31;68134;51.984;5.652;2024-02-23T00:14:50;6.0;80.6
78793;SHT31;68134;51.984;5.652;2024-02-23T00:17:19;6.0;81.1
78793;SHT31;68134;51.984;5.652;2024-02-23T00:19:51;6.1;81.0
78793;SHT31;68134;51.984;5.652;2024-02-23T00:22:21;6.1;81.1
78793;SHT31;68134;51.984;5.652;2024-02-23T00:24:51;6.1;81.2
78793;SHT31;68134;51.984;5.652;2024-02-23T00:27:20;6.1;81.1
78793;SHT31;68134;51.984;5.652;2024-02-23T00:29:48;6.2;81.1
78793;SHT31;68134;51.984;5.652;2024-02-23T00:32:17;6.2;80.7
78793;SHT31;68134;51.984;5.652;2024-02-23T00:34:45;6.2;80.9
78793;SHT31;68134;51.984;5.652;2024-02-23T00:37:13;6.2;80.5
78793;SHT31;68134;51.984;5.652;2024-02-23T00:39:42;6.2;80.6
78793;SHT31;68134;51.984;5.652;2024-02-23T00:42:10;6.3;80.2
78793;SHT31;68134;51.984;5.652;2024-02-23T00:44:39;6.3;79.5
78793;SHT31;68134;51.984;5.652;2024-02-23T00:47:08;6.3;78.2
78793;SHT31;68134;51.984;5.652;2024-02-23T00:49:36;6.3;78.0
78793;SHT31;68134;51.984;5.652;2024-02-23T00:52:05;6.2;76.0
78793;SHT31;68134;51.984;5.652;2024-02-23T00:54:34;6.2;76.2
78793;SHT31;68134;51.984;5.652;2024-02-23T00:57:03;6.1;76.2
78793;SHT31;68134;51.984;5.652;2024-02-23T00:59:31;6.0;75.8
78793;SHT31;68134;51.984;5.652;2024-02-23T01:02:02;6.0;76.1
78793;SHT31;68134;51.984;5.652;2024-02-23T01:04:31;5.9;76.2
78793;SHT31;68134;51.984;5.652;2024-02-23T01:06:59;5.8;76.8
78793;SHT31;68134;51.984;5.652;2024-02-23T01:09:28;5.8;78.9
78793;SHT31;68134;51.984;5.652;2024-02-23T01:11:56;5.8;80.3
78793;SHT31;68134;51.984;5.652;2024-02-23T01:14:25;5.7;81.1
78793;SHT31;68134;51.984;5.652;2024-02-23T01:16:53;5.7;81.6
78793;SHT31;68134;51.984;5.652;2024-02-23T01:19:22;5.8;82.0
78793;SHT31;68134;51.984;5.652;2024-02-23T01:21:51;5.8;82.2
78793;SHT31;68134;51.984;5.652;2024-02-23T01:24:25;5.8;82.4
78793;SHT31;68134;51.984;5.652;2024-02-23T01:26:56;5.9;82.0
78793;SHT31;68134;51.984;5.652;2024-02-23T01:29:25;5.9;81.8
78793;SHT31;68134;51.984;5.652;2024-02-23T01:31:54;5.9;81.7
78793;SHT31;68134;51.984;5.652;2024-02-23T01:34:23;5.9;81.6
78793;SHT31;68134;51.984;5.652;2024-02-23T01:36:51;5.9;81.3
78793;SHT31;68134;51.984;5.652;2024-02-23T01:39:20;5.9;81.3
78793;SHT31;68134;51.984;5.652;2024-02-23T01:41:48;5.9;81.2
78793;SHT31;68134;51.984;5.652;2024-02-23T01:44:17;5.9;81.1
78793;SHT31;68134;51.984;5.652;2024-02-23T01:46:48;5.9;81.2
78793;SHT31;68134;51.984;5.652;2024-02-23T01:49:18;5.9;81.2
78793;SHT31;68134;51.984;5.652;2024-02-23T01:51:47;5.9;81.2
78793;SHT31;68134;51.984;5.652;2024-02-23T01:54:16;5.9;80.8
78793;SHT31;68134;51.984;5.652;2024-02-23T01:56:47;5.9;80.8
78793;SHT31;68134;51.984;5.652;2024-02-23T01:59:17;5.9;80.7
78793;SHT31;68134;51.984;5.652;2024-02-23T02:01:46;5.8;80.5
78793;SHT31;68134;51.984;5.652;2024-02-23T02:04:15;5.8;80.2
78793;SHT31;68134;51.984;5.652;2024-02-23T02:06:45;5.8;79.9
78793;SHT31;68134;51.984;5.652;2024-02-23T02:09:14;5.8;80.1
78793;SHT31;68134;51.984;5.652;2024-02-23T02:11:46;5.8;79.9
78793;SHT31;68134;51.984;5.652;2024-02-23T02:14:16;5.8;79.9
78793;SHT31;68134;51.984;5.652;2024-02-23T02:16:45;5.8;80.0
78793;SHT31;68134;51.984;5.652;2024-02-23T02:19:14;5.8;79.9
78793;SHT31;68134;51.984;5.652;2024-02-23T02:21:43;5.7;79.7
78793;SHT31;68134;51.984;5.652;2024-02-23T02:24:12;5.7;79.9
78793;SHT31;68134;51.984;5.652;2024-02-23T02:26:42;5.7;79.4
78793;SHT31;68134;51.984;5.652;2024-02-23T02:29:13;5.7;79.4
78793;SHT31;68134;51.984;5.652;2024-02-23T02:31:42;5.7;79.3
78793;SHT31;68134;51.984;5.652;2024-02-23T02:34:10;5.7;79.3
78793;SHT31;68134;51.984;5.652;2024-02-23T02:36:41;5.7;79.4
78793;SHT31;68134;51.984;5.652;2024-02-23T02:39:09;5.7;79.9
78793;SHT31;68134;51.984;5.652;2024-02-23T02:41:38;5.7;80.0
78793;SHT31;68134;51.984;5.652;2024-02-23T02:44:07;5.7;80.0
78793;SHT31;68134;51.984;5.652;2024-02-23T02:46:36;5.7;79.6
78793;SHT31;68134;51.984;5.652;2024-02-23T02:49:07;5.7;79.4
78793;SHT31;68134;51.984;5.652;2024-02-23T02:51:35;5.7;79.2
78793;SHT31;68134;51.984;5.652;2024-02-23T02:54:04;5.7;79.0
78793;SHT31;68134;51.984;5.652;2024-02-23T02:56:32;5.7;79.2
78793;SHT31;68134;51.984;5.652;2024-02-23T02:59:01;5.7;79.2
78793;SHT31;68134;51.984;5.652;2024-02-23T03:01:29;5.7;79.2
78793;SHT31;68134;51.984;5.652;2024-02-23T03:03:58;5.7;79.2
78793;SHT31;68134;51.984;5.652;2024-02-23T03:06:26;5.7;78.9
78793;SHT31;68134;51.984;5.652;2024-02-23T03:08:55;5.7;79.0
78793;SHT31;68134;51.984;5.652;2024-02-23T03:11:23;5.7;78.8
78793;SHT31;68134;51.984;5.652;2024-02-23T03:13:52;5.7;78.7
78793;SHT31;68134;51.984;5.652;2024-02-23T03:16:21;5.6;78.5
78793;SHT31;68134;51.984;5.652;2024-02-23T03:18:54;5.6;78.4
78793;SHT31;68134;51.984;5.652;2024-02-23T03:21:23;5.6;78.5
78793;SHT31;68134;51.984;5.652;2024-02-23T03:23:51;5.6;78.6
78793;SHT31;68134;51.984;5.652;2024-02-23T03:26:20;5.6;78.5
78793;SHT31;68134;51.984;5.652;2024-02-23T03:28:48;5.6;78.5
78793;SHT31;68134;51.984;5.652;2024-02-23T03:31:17;5.6;78.9
78793;SHT31;68134;51.984;5.652;2024-02-23T03:33:45;5.6;79.1
78793;SHT31;68134;51.984;5.652;2024-02-23T03:36:14;5.6;79.1
78793;SHT31;68134;51.984;5.652;2024-02-23T03:38:42;5.7;79.0
78793;SHT31;68134;51.984;5.652;2024-02-23T03:41:13;5.7;78.7
78793;SHT31;68134;51.984;5.652;2024-02-23T03:43:41;5.7;78.5
78793;SHT31;68134;51.984;5.652;2024-02-23T03:46:11;5.7;78.6
78793;SHT31;68134;51.984;5.652;2024-02-23T03:48:41;5.7;78.7
78793;SHT31;68134;51.984;5.652;2024-02-23T03:51:10;5.7;78.3
78793;SHT31;68134;51.984;5.652;2024-02-23T03:53:38;5.7;78.1
78793;SHT31;68134;51.984;5.652;2024-02-23T03:56:09;5.7;78.1
78793;SHT31;68134;51.984;5.652;2024-02-23T03:58:38;5.7;78.0
78793;SHT31;68134;51.984;5.652;2024-02-23T04:01:08;5.7;78.2
78793;SHT31;68134;51.984;5.652;2024-02-23T04:03:37;5.7;78.2
78793;SHT31;68134;51.984;5.652;2024-02-23T04:06:06;5.7;78.1
78793;SHT31;68134;51.984;5.652;2024-02-23T04:08:35;5.7;78.3
78793;SHT31;68134;51.984;5.652;2024-02-23T04:11:06;5.7;78.6
78793;SHT31;68134;51.984;5.652;2024-02-23T04:13:36;5.7;78.8
78793;SHT31;68134;51.984;5.652;2024-02-23T04:16:05;5.7;78.7
78793;SHT31;68134;51.984;5.652;2024-02-23T04:18:34;5.7;78.5
78793;SHT31;68134;51.984;5.652;2024-02-23T04:21:02;5.7;78.5
78793;SHT31;68134;51.984;5.652;2024-02-23T04:23:31;5.7;78.6
78793;SHT31;68134;51.984;5.652;2024-02-23T04:26:00;5.7;78.2
78793;SHT31;68134;51.984;5.652;2024-02-23T04:28:28;5.7;78.1
78793;SHT31;68134;51.984;5.652;2024-02-23T04:30:59;5.7;78.2
78793;SHT31;68134;51.984;5.652;2024-02-23T04:33:28;5.7;78.3
78793;SHT31;68134;51.984;5.652;2024-02-23T04:35:57;5.7;78.6
78793;SHT31;68134;51.984;5.652;2024-02-23T04:38:26;5.7;78.4
78793;SHT31;68134;51.984;5.652;2024-02-23T04:40:54;5.7;78.4
78793;SHT31;68134;51.984;5.652;2024-02-23T04:43:25;5.7;78.3
78793;SHT31;68134;51.984;5.652;2024-02-23T04:45:54;5.8;78.1
78793;SHT31;68134;51.984;5.652;2024-02-23T04:48:24;5.8;77.7
78793;SHT31;68134;51.984;5.652;2024-02-23T04:50:53;5.8;77.7
78793;SHT31;68134;51.984;5.652;2024-02-23T04:53:21;5.8;77.6
78793;SHT31;68134;51.984;5.652;2024-02-23T04:55:52;5.9;77.5
78793;SHT31;68134;51.984;5.652;2024-02-23T04:58:20;5.9;77.4
78793;SHT31;68134;51.984;5.652;2024-02-23T05:00:49;6.0;77.3
78793;SHT31;68134;51.984;5.652;2024-02-23T05:03:18;6.0;77.2
78793;SHT31;68134;51.984;5.652;2024-02-23T05:05:48;6.0;76.9
78793;SHT31;68134;51.984;5.652;2024-02-23T05:08:20;6.1;76.7
78793;SHT31;68134;51.984;5.652;2024-02-23T05:10:50;6.1;76.4
78793;SHT31;68134;51.984;5.652;2024-02-23T05:13:19;6.2;76.2
78793;SHT31;68134;51.984;5.652;2024-02-23T05:15:47;6.2;76.2
78793;SHT31;68134;51.984;5.652;2024-02-23T05:18:16;6.3;75.9
78793;SHT31;68134;51.984;5.652;2024-02-23T05:20:47;6.3;75.8
78793;SHT31;68134;51.984;5.652;2024-02-23T05:23:16;6.4;75.3
78793;SHT31;68134;51.984;5.652;2024-02-23T05:25:46;6.4;74.9
78793;SHT31;68134;51.984;5.652;2024-02-23T05:28:17;6.5;74.9
78793;SHT31;68134;51.984;5.652;2024-02-23T05:30:46;6.5;74.5
78793;SHT31;68134;51.984;5.652;2024-02-23T05:33:14;6.6;74.3
78793;SHT31;68134;51.984;5.652;2024-02-23T05:35:45;6.6;74.1
78793;SHT31;68134;51.984;5.652;2024-02-23T05:38:15;6.6;74.0
78793;SHT31;68134;51.984;5.652;2024-02-23T05:40:43;6.6;73.8
78793;SHT31;68134;51.984;5.652;2024-02-23T05:43:12;6.7;73.4
78793;SHT31;68134;51.984;5.652;2024-02-23T05:45:41;6.7;73.2
78793;SHT31;68134;51.984;5.652;2024-02-23T05:48:10;6.7;73.2
78793;SHT31;68134;51.984;5.652;2024-02-23T05:50:38;6.7;72.7
78793;SHT31;68134;51.984;5.652;2024-02-23T05:53:07;6.7;72.6
78793;SHT31;68134;51.984;5.652;2024-02-23T05:55:36;6.8;72.4
78793;SHT31;68134;51.984;5.652;2024-02-23T05:58:04;6.8;72.5
78793;SHT31;68134;51.984;5.652;2024-02-23T06:00:35;6.8;72.3
78793;SHT31;68134;51.984;5.652;2024-02-23T06:03:03;6.8;71.9
78793;SHT31;68134;51.984;5.652;2024-02-23T06:05:32;6.8;71.9
78793;SHT31;68134;51.984;5.652;2024-02-23T06:08:01;6.9;71.7
78793;SHT31;68134;51.984;5.652;2024-02-23T06:10:29;6.9;71.8
78793;SHT31;68134;51.984;5.652;2024-02-23T06:12:58;6.9;71.6
78793;SHT31;68134;51.984;5.652;2024-02-23T06:15:26;6.9;71.2
78793;SHT31;68134;51.984;5.652;2024-02-23T06:17:55;6.9;71.7
78793;SHT31;68134;51.984;5.652;2024-02-23T06:20:24;6.9;71.5
78793;SHT31;68134;51.984;5.652;2024-02-23T06:22:52;7.0;71.4
78793;SHT31;68134;51.984;5.652;2024-02-23T06:25:21;7.0;71.0
78793;SHT31;68134;51.984;5.652;2024-02-23T06:27:49;7.0;70.7
78793;SHT31;68134;51.984;5.652;2024-02-23T06:30:18;7.0;70.6
78793;SHT31;68134;51.984;5.652;2024-02-23T06:32:47;7.0;71.0
78793;SHT31;68134;51.984;5.652;2024-02-23T06:35:15;7.0;70.8
78793;SHT31;68134;51.984;5.652;2024-02-23T06:37:44;7.1;70.4
78793;SHT31;68134;51.984;5.652;2024-02-23T06:40:16;7.1;70.6
78793;SHT31;68134;51.984;5.652;2024-02-23T06:42:44;7.1;70.3
78793;SHT31;68134;51.984;5.652;2024-02-23T06:45:13;7.1;70.3
78793;SHT31;68134;51.984;5.652;2024-02-23T06:47:44;7.1;70.6
78793;SHT31;68134;51.984;5.652;2024-02-23T06:50:12;7.1;70.3
78793;SHT31;68134;51.984;5.652;2024-02-23T06:52:41;7.2;70.5
78793;SHT31;68134;51.984;5.652;2024-02-23T06:55:12;7.2;70.6
78793;SHT31;68134;51.984;5.652;2024-02-23T06:57:40;7.2;70.4
78793;SHT31;68134;51.984;5.652;2024-02-23T07:00:10;7.2;70.2
78793;SHT31;68134;51.984;5.652;2024-02-23T07:02:39;7.2;70.3
78793;SHT31;68134;51.984;5.652;2024-02-23T07:05:08;7.3;69.6
78793;SHT31;68134;51.984;5.652;2024-02-23T07:07:37;7.3;69.6
78793;SHT31;68134;51.984;5.652;2024-02-23T07:10:07;7.3;69.4
78793;SHT31;68134;51.984;5.652;2024-02-23T07:12:39;7.3;69.1
78793;SHT31;68134;51.984;5.652;2024-02-23T07:15:08;7.3;69.2
78793;SHT31;68134;51.984;5.652;2024-02-23T07:17:36;7.3;68.9
78793;SHT31;68134;51.984;5.652;2024-02-23T07:20:05;7.4;68.6
78793;SHT31;68134;51.984;5.652;2024-02-23T07:22:34;7.4;67.6
78793;SHT31;68134;51.984;5.652;2024-02-23T07:25:04;7.4;67.5
78793;SHT31;68134;51.984;5.652;2024-02-23T07:27:34;7.4;67.9
78793;SHT31;68134;51.984;5.652;2024-02-23T07:30:03;7.4;67.8
78793;SHT31;68134;51.984;5.652;2024-02-23T07:32:32;7.5;67.8
78793;SHT31;68134;51.984;5.652;2024-02-23T07:35:00;7.5;68.0
78793;SHT31;68134;51.984;5.652;2024-02-23T07:37:30;7.5;67.9
78793;SHT31;68134;51.984;5.652;2024-02-23T07:39:58;7.5;67.6
78793;SHT31;68134;51.984;5.652;2024-02-23T07:42:38;7.5;67.4
78793;SHT31;68134;51.984;5.652;2024-02-23T07:45:07;7.6;67.6
78793;SHT31;68134;51.984;5.652;2024-02-23T07:47:37;7.6;67.0
78793;SHT31;68134;51.984;5.652;2024-02-23T07:50:06;7.6;66.3
78793;SHT31;68134;51.984;5.652;2024-02-23T07:52:35;7.6;66.8
78793;SHT31;68134;51.984;5.652;2024-02-23T07:55:03;7.6;67.0
78793;SHT31;68134;51.984;5.652;2024-02-23T07:57:35;7.6;66.5
78793;SHT31;68134;51.984;5.652;2024-02-23T08:00:06;7.7;67.2
78793;SHT31;68134;51.984;5.652;2024-02-23T08:02:36;7.7;66.2
78793;SHT31;68134;51.984;5.652;2024-02-23T08:05:04;7.8;66.4
78793;SHT31;68134;51.984;5.652;2024-02-23T08:07:33;7.8;65.8
78793;SHT31;68134;51.984;5.652;2024-02-23T08:10:02;7.8;65.9
78793;SHT31;68134;51.984;5.652;2024-02-23T08:12:31;7.9;65.3
78793;SHT31;68134;51.984;5.652;2024-02-23T08:15:00;7.9;65.5
78793;SHT31;68134;51.984;5.652;2024-02-23T08:17:28;7.9;65.3
78793;SHT31;68134;51.984;5.652;2024-02-23T08:19:57;7.9;65.7
78793;SHT31;68134;51.984;5.652;2024-02-23T08:22:26;7.9;64.9
78793;SHT31;68134;51.984;5.652;2024-02-23T08:24:58;8.0;64.5
78793;SHT31;68134;51.984;5.652;2024-02-23T08:27:26;8.0;65.0
78793;SHT31;68134;51.984;5.652;2024-02-23T08:29:54;8.0;65.5
78793;SHT31;68134;51.984;5.652;2024-02-23T08:32:23;8.0;65.5
78793;SHT31;68134;51.984;5.652;2024-02-23T08:34:52;8.0;65.5
78793;SHT31;68134;51.984;5.652;2024-02-23T08:37:25;8.0;65.2
78793;SHT31;68134;51.984;5.652;2024-02-23T08:39:54;8.1;65.2
78793;SHT31;68134;51.984;5.652;2024-02-23T08:42:22;8.1;64.3
78793;SHT31;68134;51.984;5.652;2024-02-23T08:44:51;8.2;64.4
78793;SHT31;68134;51.984;5.652;2024-02-23T08:47:20;8.2;64.4
78793;SHT31;68134;51.984;5.652;2024-02-23T08:49:49;8.2;63.9
78793;SHT31;68134;51.984;5.652;2024-02-23T08:52:17;8.3;64.6
78793;SHT31;68134;51.984;5.652;2024-02-23T08:54:50;8.3;63.8
78793;SHT31;68134;51.984;5.652;2024-02-23T08:57:19;8.3;63.9
78793;SHT31;68134;51.984;5.652;2024-02-23T08:59:51;8.3;63.3
78793;SHT31;68134;51.984;5.652;2024-02-23T09:02:19;8.3;63.5
78793;SHT31;68134;51.984;5.652;2024-02-23T09:04:48;8.3;63.7
78793;SHT31;68134;51.984;5.652;2024-02-23T09:07:16;8.3;63.4
78793;SHT31;68134;51.984;5.652;2024-02-23T09:09:46;8.3;63.3
78793;SHT31;68134;51.984;5.652;2024-02-23T09:12:16;8.3;63.5
78793;SHT31;68134;51.984;5.652;2024-02-23T09:14:44;8.3;63.3
78793;SHT31;68134;51.984;5.652;2024-02-23T09:17:14;8.3;63.7
78793;SHT31;68134;51.984;5.652;2024-02-23T09:19:42;8.3;64.3
78793;SHT31;68134;51.984;5.652;2024-02-23T09:22:11;8.3;63.7
78793;SHT31;68134;51.984;5.652;2024-02-23T09:24:41;8.3;63.8
78793;SHT31;68134;51.984;5.652;2024-02-23T09:27:10;8.4;64.2
78793;SHT31;68134;51.984;5.652;2024-02-23T09:29:40;8.4;63.8
78793;SHT31;68134;51.984;5.652;2024-02-23T09:32:09;8.4;63.8
78793;SHT31;68134;51.984;5.652;2024-02-23T09:34:38;8.5;63.6
78793;SHT31;68134;51.984;5.652;2024-02-23T09:37:06;8.5;63.6
78793;SHT31;68134;51.984;5.652;2024-02-23T09:39:34;8.5;63.4
78793;SHT31;68134;51.984;5.652;2024-02-23T09:42:10;8.6;63.9
78793;SHT31;68134;51.984;5.652;2024-02-23T09:44:39;8.6;64.3
78793;SHT31;68134;51.984;5.652;2024-02-23T09:47:10;8.7;63.9
78793;SHT31;68134;51.984;5.652;2024-02-23T09:49:40;8.7;63.9
78793;SHT31;68134;51.984;5.652;2024-02-23T09:52:10;8.7;64.0
78793;SHT31;68134;51.984;5.652;2024-02-23T09:54:39;8.8;64.4
78793;SHT31;68134;51.984;5.652;2024-02-23T09:57:09;8.8;64.8
78793;SHT31;68134;51.984;5.652;2024-02-23T09:59:37;8.8;65.8
78793;SHT31;68134;51.984;5.652;2024-02-23T10:02:07;8.8;65.6
78793;SHT31;68134;51.984;5.652;2024-02-23T10:04:37;8.7;66.4
78793;SHT31;68134;51.984;5.652;2024-02-23T10:07:07;8.7;67.4
78793;SHT31;68134;51.984;5.652;2024-02-23T10:09:36;8.6;67.5
78793;SHT31;68134;51.984;5.652;2024-02-23T10:12:05;8.6;67.7
78793;SHT31;68134;51.984;5.652;2024-02-23T10:14:34;8.6;68.1
78793;SHT31;68134;51.984;5.652;2024-02-23T10:17:06;8.5;68.0
78793;SHT31;68134;51.984;5.652;2024-02-23T10:19:38;8.5;68.5
78793;SHT31;68134;51.984;5.652;2024-02-23T10:22:08;8.5;68.6
78793;SHT31;68134;51.984;5.652;2024-02-23T10:24:38;8.4;68.7
78793;SHT31;68134;51.984;5.652;2024-02-23T10:27:07;8.4;68.5
78793;SHT31;68134;51.984;5.652;2024-02-23T10:29:35;8.4;68.4
78793;SHT31;68134;51.984;5.652;2024-02-23T10:32:06;8.4;68.2
78793;SHT31;68134;51.984;5.652;2024-02-23T10:34:37;8.4;67.7
78793;SHT31;68134;51.984;5.652;2024-02-23T10:37:09;8.4;68.2
78793;SHT31;68134;51.984;5.652;2024-02-23T10:39:38;8.4;67.8
78793;SHT31;68134;51.984;5.652;2024-02-23T10:42:09;8.5;67.9
78793;SHT31;68134;51.984;5.652;2024-02-23T10:44:41;8.5;67.9
78793;SHT31;68134;51.984;5.652;2024-02-23T10:47:12;8.5;68.1
78793;SHT31;68134;51.984;5.652;2024-02-23T10:49:44;8.5;67.4
78793;SHT31;68134;51.984;5.652;2024-02-23T10:52:15;8.6;67.2
78793;SHT31;68134;51.984;5.652;2024-02-23T10:54:46;8.6;66.5
78793;SHT31;68134;51.984;5.652;2024-02-23T10:57:19;8.7;66.8
78793;SHT31;68134;51.984;5.652;2024-02-23T10:59:48;8.7;66.4
78793;SHT31;68134;51.984;5.652;2024-02-23T11:02:20;8.7;66.4
78793;SHT31;68134;51.984;5.652;2024-02-23T11:04:50;8.7;66.6
78793;SHT31;68134;51.984;5.652;2024-02-23T11:07:20;8.8;66.9
78793;SHT31;68134;51.984;5.652;2024-02-23T11:09:54;8.8;66.7
78793;SHT31;68134;51.984;5.652;2024-02-23T11:12:29;8.8;65.9
78793;SHT31;68134;51.984;5.652;2024-02-23T11:15:01;8.8;65.8
78793;SHT31;68134;51.984;5.652;2024-02-23T11:17:32;8.9;65.3
78793;SHT31;68134;51.984;5.652;2024-02-23T11:20:03;8.9;65.3
78793;SHT31;68134;51.984;5.652;2024-02-23T11:22:34;8.9;66.3
78793;SHT31;68134;51.984;5.652;2024-02-23T11:25:05;8.9;66.3
78793;SHT31;68134;51.984;5.652;2024-02-23T11:27:35;8.9;66.3
78793;SHT31;68134;51.984;5.652;2024-02-23T11:30:06;8.9;65.7
78793;SHT31;68134;51.984;5.652;2024-02-23T11:32:38;8.9;65.9
78793;SHT31;68134;51.984;5.652;2024-02-23T11:35:10;8.9;65.4
78793;SHT31;68134;51.984;5.652;2024-02-23T11:37:51;9.0;65.8
78793;SHT31;68134;51.984;5.652;2024-02-23T11:40:24;9.0;65.8
78793;SHT31;68134;51.984;5.652;2024-02-23T11:42:56;9.0;66.2
78793;SHT31;68134;51.984;5.652;2024-02-23T11:45:28;9.1;66.0
78793;SHT31;68134;51.984;5.652;2024-02-23T11:47:57;9.1;65.9
78793;SHT31;68134;51.984;5.652;2024-02-23T11:50:26;9.2;66.9
78793;SHT31;68134;51.984;5.652;2024-02-23T11:52:54;9.3;65.8
78793;SHT31;68134;51.984;5.652;2024-02-23T11:55:23;9.4;65.2
78793;SHT31;68134;51.984;5.652;2024-02-23T11:57:51;9.4;64.4
78793;SHT31;68134;51.984;5.652;2024-02-23T12:00:20;9.4;65.1
78793;SHT31;68134;51.984;5.652;2024-02-23T12:02:49;9.5;64.4
78793;SHT31;68134;51.984;5.652;2024-02-23T12:05:18;9.5;64.1
78793;SHT31;68134;51.984;5.652;2024-02-23T12:07:48;9.5;64.2
78793;SHT31;68134;51.984;5.652;2024-02-23T12:10:17;9.6;64.1
78793;SHT31;68134;51.984;5.652;2024-02-23T12:12:46;9.6;64.3
78793;SHT31;68134;51.984;5.652;2024-02-23T12:15:15;9.6;64.4
78793;SHT31;68134;51.984;5.652;2024-02-23T12:17:49;9.7;63.5
78793;SHT31;68134;51.984;5.652;2024-02-23T12:20:18;9.7;64.8
78793;SHT31;68134;51.984;5.652;2024-02-23T12:22:47;9.8;63.6
78793;SHT31;68134;51.984;5.652;2024-02-23T12:25:17;9.8;63.3
78793;SHT31;68134;51.984;5.652;2024-02-23T12:27:46;9.8;62.8
78793;SHT31;68134;51.984;5.652;2024-02-23T12:30:17;9.8;63.6
78793;SHT31;68134;51.984;5.652;2024-02-23T12:32:45;9.9;63.8
78793;SHT31;68134;51.984;5.652;2024-02-23T12:35:14;9.9;62.7
78793;SHT31;68134;51.984;5.652;2024-02-23T12:37:46;10.0;63.1
78793;SHT31;68134;51.984;5.652;2024-02-23T12:40:16;10.5;63.0
78793;SHT31;68134;51.984;5.652;2024-02-23T12:42:44;11.3;59.4
78793;SHT31;68134;51.984;5.652;2024-02-23T12:45:15;11.9;56.6
78793;SHT31;68134;51.984;5.652;2024-02-23T12:47:45;12.0;56.3
78793;SHT31;68134;51.984;5.652;2024-02-23T12:50:14;12.0;55.1
78793;SHT31;68134;51.984;5.652;2024-02-23T12:52:43;12.0;56.2
78793;SHT31;68134;51.984;5.652;2024-02-23T12:55:14;12.0;56.1
78793;SHT31;68134;51.984;5.652;2024-02-23T13:00:08;12.1;55.4
78793;SHT31;68134;51.984;5.652;2024-02-23T13:02:37;12.1;55.8
78793;SHT31;68134;51.984;5.652;2024-02-23T13:05:08;12.0;54.7
78793;SHT31;68134;51.984;5.652;2024-02-23T13:07:36;12.0;55.6
78793;SHT31;68134;51.984;5.652;2024-02-23T13:10:07;12.0;55.5
78793;SHT31;68134;51.984;5.652;2024-02-23T13:12:37;11.9;55.6
78793;SHT31;68134;51.984;5.652;2024-02-23T13:15:06;11.9;55.7
78793;SHT31;68134;51.984;5.652;2024-02-23T13:17:35;11.9;55.5
78793;SHT31;68134;51.984;5.652;2024-02-23T13:20:04;11.8;55.2
78793;SHT31;68134;51.984;5.652;2024-02-23T13:22:33;11.7;55.8
78793;SHT31;68134;51.984;5.652;2024-02-23T13:25:01;11.7;56.1
78793;SHT31;68134;51.984;5.652;2024-02-23T13:27:30;11.6;55.3
78793;SHT31;68134;51.984;5.652;2024-02-23T13:29:58;11.5;55.5
78793;SHT31;68134;51.984;5.652;2024-02-23T13:32:27;11.5;56.7
78793;SHT31;68134;51.984;5.652;2024-02-23T13:34:55;11.4;57.0
78793;SHT31;68134;51.984;5.652;2024-02-23T13:37:24;11.4;56.3
78793;SHT31;68134;51.984;5.652;2024-02-23T13:39:54;11.3;56.2
78793;SHT31;68134;51.984;5.652;2024-02-23T13:42:23;11.3;56.1
78793;SHT31;68134;51.984;5.652;2024-02-23T13:44:54;11.3;56.0
78793;SHT31;68134;51.984;5.652;2024-02-23T13:47:22;11.3;55.5
78793;SHT31;68134;51.984;5.652;2024-02-23T13:49:51;11.2;56.9
78793;SHT31;68134;51.984;5.652;2024-02-23T13:52:19;11.2;56.3
78793;SHT31;68134;51.984;5.652;2024-02-23T13:54:48;11.2;55.9
78793;SHT31;68134;51.984;5.652;2024-02-23T13:57:16;11.2;56.2
78793;SHT31;68134;51.984;5.652;2024-02-23T13:59:45;11.2;55.9
78793;SHT31;68134;51.984;5.652;2024-02-23T14:02:14;11.1;56.6
78793;SHT31;68134;51.984;5.652;2024-02-23T14:04:46;11.2;58.8
78793;SHT31;68134;51.984;5.652;2024-02-23T14:07:16;11.7;55.8
78793;SHT31;68134;51.984;5.652;2024-02-23T14:09:45;12.2;53.5
78793;SHT31;68134;51.984;5.652;2024-02-23T14:12:14;12.3;53.5
78793;SHT31;68134;51.984;5.652;2024-02-23T14:14:44;12.3;53.7
78793;SHT31;68134;51.984;5.652;2024-02-23T14:17:12;12.2;53.1
78793;SHT31;68134;51.984;5.652;2024-02-23T14:19:41;12.2;52.9
78793;SHT31;68134;51.984;5.652;2024-02-23T14:22:09;12.1;54.0
78793;SHT31;68134;51.984;5.652;2024-02-23T14:24:38;12.0;54.2
78793;SHT31;68134;51.984;5.652;2024-02-23T14:27:07;11.9;54.7
78793;SHT31;68134;51.984;5.652;2024-02-23T14:29:35;11.9;54.7
78793;SHT31;68134;51.984;5.652;2024-02-23T14:32:05;11.9;55.6
78793;SHT31;68134;51.984;5.652;2024-02-23T14:34:33;12.0;55.4
78793;SHT31;68134;51.984;5.652;2024-02-23T14:37:02;12.1;54.3
78793;SHT31;68134;51.984;5.652;2024-02-23T14:39:31;12.2;54.1
78793;SHT31;68134;51.984;5.652;2024-02-23T14:42:00;12.1;53.1
78793;SHT31;68134;51.984;5.652;2024-02-23T14:44:29;12.1;54.0
78793;SHT31;68134;51.984;5.652;2024-02-23T14:46:58;12.0;53.9
78793;SHT31;68134;51.984;5.652;2024-02-23T14:49:26;11.9;54.8
78793;SHT31;68134;51.984;5.652;2024-02-23T14:51:55;11.9;54.6
78793;SHT31;68134;51.984;5.652;2024-02-23T14:54:24;11.8;55.3
78793;SHT31;68134;51.984;5.652;2024-02-23T14:56:52;11.7;56.5
78793;SHT31;68134;51.984;5.652;2024-02-23T14:59:21;11.7;57.0
78793;SHT31;68134;51.984;5.652;2024-02-23T15:01:49;11.6;56.8
78793;SHT31;68134;51.984;5.652;2024-02-23T15:04:18;11.5;57.5
78793;SHT31;68134;51.984;5.652;2024-02-23T15:06:47;11.4;58.0
78793;SHT31;68134;51.984;5.652;2024-02-23T15:09:16;11.3;59.1
78793;SHT31;68134;51.984;5.652;2024-02-23T15:11:45;11.2;59.5
78793;SHT31;68134;51.984;5.652;2024-02-23T15:14:13;11.1;59.6
78793;SHT31;68134;51.984;5.652;2024-02-23T15:16:43;11.1;59.5
78793;SHT31;68134;51.984;5.652;2024-02-23T15:19:12;11.0;59.6
78793;SHT31;68134;51.984;5.652;2024-02-23T15:21:40;10.9;59.7
78793;SHT31;68134;51.984;5.652;2024-02-23T15:24:09;10.9;61.2
78793;SHT31;68134;51.984;5.652;2024-02-23T15:26:39;10.8;62.5
78793;SHT31;68134;51.984;5.652;2024-02-23T15:29:08;10.6;64.4
78793;SHT31;68134;51.984;5.652;2024-02-23T15:31:37;10.4;65.6
78793;SHT31;68134;51.984;5.652;2024-02-23T15:34:05;10.3;66.8
78793;SHT31;68134;51.984;5.652;2024-02-23T15:36:34;10.3;66.9
78793;SHT31;68134;51.984;5.652;2024-02-23T15:39:05;10.4;66.7
78793;SHT31;68134;51.984;5.652;2024-02-23T15:41:34;10.6;66.9
78793;SHT31;68134;51.984;5.652;2024-02-23T15:44:03;11.0;66.1
78793;SHT31;68134;51.984;5.652;2024-02-23T15:46:32;11.3;64.8
78793;SHT31;68134;51.984;5.652;2024-02-23T15:49:00;11.5;62.7
78793;SHT31;68134;51.984;5.652;2024-02-23T15:51:29;11.5;62.8
78793;SHT31;68134;51.984;5.652;2024-02-23T15:54:00;11.4;62.7
78793;SHT31;68134;51.984;5.652;2024-02-23T15:56:29;11.3;62.2
78793;SHT31;68134;51.984;5.652;2024-02-23T15:58:57;11.2;62.3
78793;SHT31;68134;51.984;5.652;2024-02-23T16:01:27;11.0;62.3
78793;SHT31;68134;51.984;5.652;2024-02-23T16:03:55;10.9;62.7
78793;SHT31;68134;51.984;5.652;2024-02-23T16:06:24;10.7;63.3
78793;SHT31;68134;51.984;5.652;2024-02-23T16:08:55;10.6;63.1
78793;SHT31;68134;51.984;5.652;2024-02-23T16:11:24;10.6;63.9
78793;SHT31;68134;51.984;5.652;2024-02-23T16:13:53;10.5;64.6
78793;SHT31;68134;51.984;5.652;2024-02-23T16:16:21;10.4;64.7
78793;SHT31;68134;51.984;5.652;2024-02-23T16:18:50;10.4;66.2
78793;SHT31;68134;51.984;5.652;2024-02-23T16:21:19;10.3;66.6
78793;SHT31;68134;51.984;5.652;2024-02-23T16:23:49;10.3;67.3
78793;SHT31;68134;51.984;5.652;2024-02-23T16:26:18;10.2;67.0
78793;SHT31;68134;51.984;5.652;2024-02-23T16:28:47;10.1;65.9
78793;SHT31;68134;51.984;5.652;2024-02-23T16:31:17;10.1;66.6